sensor_id;sensor_type;location;lat;lon;timestamp;temperature;humidity
12111;DHT22;6119;52.372;8.990;2022-12-07T00:00:40;5.30;99.90
12111;DHT22;6119;52.372;8.990;2022-12-07T00:03:27;5.30;99.90
12111;DHT22;6119;52.372;8.990;2022-12-07T00:06:16;5.30;99.90
12111;DHT22;6119;52.372;8.990;2022-12-07T00:09:04;5.30;99.90
12111;DHT22;6119;52.372;8.990;2022-12-07T00:11:51;5.30;99.90
12111;DHT22;6119;52.372;8.990;2022-12-07T00:14:37;5.30;99.90
12111;DHT22;6119;52.372;8.990;2022-12-07T00:17:25;5.40;99.90
12111;DHT22;6119;52.372;8.990;2022-12-07T00:20:12;5.40;99.90
12111;DHT22;6119;52.372;8.990;2022-12-07T00:22:59;5.30;99.90
12111;DHT22;6119;52.372;8.990;2022-12-07T00:25:46;5.40;99.90
12111;DHT22;6119;52.372;8.990;2022-12-07T00:28:34;5.50;99.90
12111;DHT22;6119;52.372;8.990;2022-12-07T00:31:23;5.40;99.90
12111;DHT22;6119;52.372;8.990;2022-12-07T00:34:15;5.50;99.90
12111;DHT22;6119;52.372;8.990;2022-12-07T00:37:02;5.50;99.90
12111;DHT22;6119;52.372;8.990;2022-12-07T00:39:49;5.50;99.90
12111;DHT22;6119;52.372;8.990;2022-12-07T00:42:35;5.40;99.90
12111;DHT22;6119;52.372;8.990;2022-12-07T00:45:22;5.50;99.90
12111;DHT22;6119;52.372;8.990;2022-12-07T00:48:08;5.60;99.90
12111;DHT22;6119;52.372;8.990;2022-12-07T00:50:57;5.50;99.90
12111;DHT22;6119;52.372;8.990;2022-12-07T00:53:44;5.50;99.90
12111;DHT22;6119;52.372;8.990;2022-12-07T00:56:31;5.60;99.90
12111;DHT22;6119;52.372;8.990;2022-12-07T00:59:18;5.60;99.90
12111;DHT22;6119;52.372;8.990;2022-12-07T01:02:04;5.60;99.90
12111;DHT22;6119;52.372;8.990;2022-12-07T01:04:50;5.60;99.90
12111;DHT22;6119;52.372;8.990;2022-12-07T01:07:38;5.60;99.90
12111;DHT22;6119;52.372;8.990;2022-12-07T01:10:25;5.60;99.90
12111;DHT22;6119;52.372;8.990;2022-12-07T01:13:12;5.70;99.90
12111;DHT22;6119;52.372;8.990;2022-12-07T01:16:00;5.70;99.90
12111;DHT22;6119;52.372;8.990;2022-12-07T01:18:48;5.70;99.90
12111;DHT22;6119;52.372;8.990;2022-12-07T01:21:35;5.70;99.90
12111;DHT22;6119;52.372;8.990;2022-12-07T01:24:24;5.50;99.90
12111;DHT22;6119;52.372;8.990;2022-12-07T01:27:11;5.50;99.90
12111;DHT22;6119;52.372;8.990;2022-12-07T01:29:57;5.60;99.90
12111;DHT22;6119;52.372;8.990;2022-12-07T01:32:44;5.60;99.90
12111;DHT22;6119;52.372;8.990;2022-12-07T01:35:33;5.60;99.90
12111;DHT22;6119;52.372;8.990;2022-12-07T01:38:20;5.60;99.90
12111;DHT22;6119;52.372;8.990;2022-12-07T01:41:08;5.50;99.90
12111;DHT22;6119;52.372;8.990;2022-12-07T01:44:11;5.40;99.90
12111;DHT22;6119;52.372;8.990;2022-12-07T01:47:01;5.50;99.90
12111;DHT22;6119;52.372;8.990;2022-12-07T01:49:48;5.40;99.90
12111;DHT22;6119;52.372;8.990;2022-12-07T01:52:37;5.40;99.90
12111;DHT22;6119;52.372;8.990;2022-12-07T01:55:26;5.40;99.90
12111;DHT22;6119;52.372;8.990;2022-12-07T01:58:15;5.40;99.90
12111;DHT22;6119;52.372;8.990;2022-12-07T02:01:02;5.40;99.90
12111;DHT22;6119;52.372;8.990;2022-12-07T02:03:49;5.40;99.90
12111;DHT22;6119;52.372;8.990;2022-12-07T02:06:36;5.50;99.90
12111;DHT22;6119;52.372;8.990;2022-12-07T02:09:23;5.40;99.90
12111;DHT22;6119;52.372;8.990;2022-12-07T02:12:10;5.40;99.90
12111;DHT22;6119;52.372;8.990;2022-12-07T02:14:58;5.20;99.90
12111;DHT22;6119;52.372;8.990;2022-12-07T02:17:51;5.20;99.90
12111;DHT22;6119;52.372;8.990;2022-12-07T02:20:44;5.20;99.90
12111;DHT22;6119;52.372;8.990;2022-12-07T02:23:56;5.20;99.90
12111;DHT22;6119;52.372;8.990;2022-12-07T02:27:02;5.20;99.90
12111;DHT22;6119;52.372;8.990;2022-12-07T02:29:58;5.10;99.90
12111;DHT22;6119;52.372;8.990;2022-12-07T02:32:53;5.00;99.90
12111;DHT22;6119;52.372;8.990;2022-12-07T02:35:45;4.90;99.90
12111;DHT22;6119;52.372;8.990;2022-12-07T02:38:38;5.00;99.90
12111;DHT22;6119;52.372;8.990;2022-12-07T02:41:28;5.00;99.90
12111;DHT22;6119;52.372;8.990;2022-12-07T02:44:18;4.90;99.90
12111;DHT22;6119;52.372;8.990;2022-12-07T02:47:10;4.90;99.90
12111;DHT22;6119;52.372;8.990;2022-12-07T02:49:58;5.00;99.90
12111;DHT22;6119;52.372;8.990;2022-12-07T02:52:45;4.90;99.90
12111;DHT22;6119;52.372;8.990;2022-12-07T02:55:37;4.90;99.90
12111;DHT22;6119;52.372;8.990;2022-12-07T02:58:32;4.90;99.90
12111;DHT22;6119;52.372;8.990;2022-12-07T03:01:30;4.90;99.90
12111;DHT22;6119;52.372;8.990;2022-12-07T03:04:33;4.80;99.90
12111;DHT22;6119;52.372;8.990;2022-12-07T03:07:29;4.80;99.90
12111;DHT22;6119;52.372;8.990;2022-12-07T03:10:28;4.80;99.90
12111;DHT22;6119;52.372;8.990;2022-12-07T03:13:22;4.70;99.90
12111;DHT22;6119;52.372;8.990;2022-12-07T03:16:14;4.70;99.90
12111;DHT22;6119;52.372;8.990;2022-12-07T03:19:05;4.70;99.90
12111;DHT22;6119;52.372;8.990;2022-12-07T03:21:57;4.70;99.90
12111;DHT22;6119;52.372;8.990;2022-12-07T03:24:47;4.60;99.90
12111;DHT22;6119;52.372;8.990;2022-12-07T03:27:40;4.70;99.90
12111;DHT22;6119;52.372;8.990;2022-12-07T03:30:31;4.50;99.90
12111;DHT22;6119;52.372;8.990;2022-12-07T03:33:21;4.60;99.90
12111;DHT22;6119;52.372;8.990;2022-12-07T03:36:14;4.50;99.90
12111;DHT22;6119;52.372;8.990;2022-12-07T03:39:13;4.50;99.90
12111;DHT22;6119;52.372;8.990;2022-12-07T03:42:05;4.50;99.90
12111;DHT22;6119;52.372;8.990;2022-12-07T03:44:53;4.40;99.90
12111;DHT22;6119;52.372;8.990;2022-12-07T03:47:46;4.50;99.90
12111;DHT22;6119;52.372;8.990;2022-12-07T03:50:38;4.50;99.90
12111;DHT22;6119;52.372;8.990;2022-12-07T03:53:33;4.60;99.90
12111;DHT22;6119;52.372;8.990;2022-12-07T03:56:22;4.60;99.90
12111;DHT22;6119;52.372;8.990;2022-12-07T03:59:11;4.40;99.90
12111;DHT22;6119;52.372;8.990;2022-12-07T04:02:02;4.50;99.90
12111;DHT22;6119;52.372;8.990;2022-12-07T04:04:50;4.40;99.90
12111;DHT22;6119;52.372;8.990;2022-12-07T04:07:36;4.50;99.90
12111;DHT22;6119;52.372;8.990;2022-12-07T04:10:23;4.30;99.90
12111;DHT22;6119;52.372;8.990;2022-12-07T04:13:11;4.40;99.90
12111;DHT22;6119;52.372;8.990;2022-12-07T04:15:58;4.50;99.90
12111;DHT22;6119;52.372;8.990;2022-12-07T04:18:45;4.50;99.90
12111;DHT22;6119;52.372;8.990;2022-12-07T04:21:31;4.50;99.90
12111;DHT22;6119;52.372;8.990;2022-12-07T04:24:18;4.50;99.90
12111;DHT22;6119;52.372;8.990;2022-12-07T04:27:05;4.40;99.90
12111;DHT22;6119;52.372;8.990;2022-12-07T04:29:53;4.50;99.90
12111;DHT22;6119;52.372;8.990;2022-12-07T04:32:40;4.50;99.90
12111;DHT22;6119;52.372;8.990;2022-12-07T04:35:27;4.50;99.90
12111;DHT22;6119;52.372;8.990;2022-12-07T04:38:13;4.40;99.90
12111;DHT22;6119;52.372;8.990;2022-12-07T04:41:05;4.40;99.90
12111;DHT22;6119;52.372;8.990;2022-12-07T04:43:52;4.30;99.90
12111;DHT22;6119;52.372;8.990;2022-12-07T04:46:40;4.30;99.90
12111;DHT22;6119;52.372;8.990;2022-12-07T04:49:27;4.30;99.90
12111;DHT22;6119;52.372;8.990;2022-12-07T04:52:14;4.30;99.90
12111;DHT22;6119;52.372;8.990;2022-12-07T04:55:01;4.30;99.90
12111;DHT22;6119;52.372;8.990;2022-12-07T04:57:47;4.30;99.90
12111;DHT22;6119;52.372;8.990;2022-12-07T05:00:34;4.30;99.90
12111;DHT22;6119;52.372;8.990;2022-12-07T05:03:22;4.30;99.90
12111;DHT22;6119;52.372;8.990;2022-12-07T05:06:10;4.20;99.90
12111;DHT22;6119;52.372;8.990;2022-12-07T05:08:58;4.20;99.90
12111;DHT22;6119;52.372;8.990;2022-12-07T05:11:44;4.30;99.90
12111;DHT22;6119;52.372;8.990;2022-12-07T05:14:31;4.30;99.90
12111;DHT22;6119;52.372;8.990;2022-12-07T05:17:18;4.40;99.90
12111;DHT22;6119;52.372;8.990;2022-12-07T05:20:07;4.30;99.90
12111;DHT22;6119;52.372;8.990;2022-12-07T05:22:54;4.40;99.90
12111;DHT22;6119;52.372;8.990;2022-12-07T05:25:40;4.40;99.90
12111;DHT22;6119;52.372;8.990;2022-12-07T05:28:27;4.30;99.90
12111;DHT22;6119;52.372;8.990;2022-12-07T05:31:13;4.30;99.90
12111;DHT22;6119;52.372;8.990;2022-12-07T05:34:00;4.30;99.90
12111;DHT22;6119;52.372;8.990;2022-12-07T05:36:48;4.30;99.90
12111;DHT22;6119;52.372;8.990;2022-12-07T05:39:35;4.30;99.90
12111;DHT22;6119;52.372;8.990;2022-12-07T05:42:22;4.40;99.90
12111;DHT22;6119;52.372;8.990;2022-12-07T05:45:09;4.40;99.90
12111;DHT22;6119;52.372;8.990;2022-12-07T05:47:56;4.40;99.90
12111;DHT22;6119;52.372;8.990;2022-12-07T05:50:43;4.30;99.90
12111;DHT22;6119;52.372;8.990;2022-12-07T05:53:31;4.30;99.90
12111;DHT22;6119;52.372;8.990;2022-12-07T05:56:17;4.20;99.90
12111;DHT22;6119;52.372;8.990;2022-12-07T05:59:04;4.30;99.90
12111;DHT22;6119;52.372;8.990;2022-12-07T06:02:11;4.40;99.90
12111;DHT22;6119;52.372;8.990;2022-12-07T06:04:58;4.40;99.90
12111;DHT22;6119;52.372;8.990;2022-12-07T06:07:44;4.40;99.90
12111;DHT22;6119;52.372;8.990;2022-12-07T06:10:32;4.30;99.90
12111;DHT22;6119;52.372;8.990;2022-12-07T06:13:19;4.30;99.90
12111;DHT22;6119;52.372;8.990;2022-12-07T06:16:05;4.40;99.90
12111;DHT22;6119;52.372;8.990;2022-12-07T06:18:52;4.50;99.90
12111;DHT22;6119;52.372;8.990;2022-12-07T06:21:39;4.50;99.90
12111;DHT22;6119;52.372;8.990;2022-12-07T06:24:26;4.50;99.90
12111;DHT22;6119;52.372;8.990;2022-12-07T06:27:14;4.40;99.90
12111;DHT22;6119;52.372;8.990;2022-12-07T06:30:00;4.50;99.90
12111;DHT22;6119;52.372;8.990;2022-12-07T06:32:51;4.40;99.90
12111;DHT22;6119;52.372;8.990;2022-12-07T06:35:38;4.50;99.90
12111;DHT22;6119;52.372;8.990;2022-12-07T06:38:24;4.50;99.90
12111;DHT22;6119;52.372;8.990;2022-12-07T06:41:10;4.40;99.90
12111;DHT22;6119;52.372;8.990;2022-12-07T06:43:58;4.50;99.90
12111;DHT22;6119;52.372;8.990;2022-12-07T06:46:45;4.50;99.90
12111;DHT22;6119;52.372;8.990;2022-12-07T06:49:31;4.50;99.90
12111;DHT22;6119;52.372;8.990;2022-12-07T06:52:18;4.60;99.90
12111;DHT22;6119;52.372;8.990;2022-12-07T06:55:05;4.50;99.90
12111;DHT22;6119;52.372;8.990;2022-12-07T06:57:52;4.40;99.90
12111;DHT22;6119;52.372;8.990;2022-12-07T07:00:40;4.50;99.90
12111;DHT22;6119;52.372;8.990;2022-12-07T07:03:27;4.40;99.90
12111;DHT22;6119;52.372;8.990;2022-12-07T07:06:14;4.40;99.90
12111;DHT22;6119;52.372;8.990;2022-12-07T07:09:00;4.40;99.90
12111;DHT22;6119;52.372;8.990;2022-12-07T07:11:47;4.40;99.90
12111;DHT22;6119;52.372;8.990;2022-12-07T07:14:34;4.40;99.90
12111;DHT22;6119;52.372;8.990;2022-12-07T07:17:22;4.50;99.90
12111;DHT22;6119;52.372;8.990;2022-12-07T07:20:10;4.40;99.90
12111;DHT22;6119;52.372;8.990;2022-12-07T07:22:57;4.30;99.90
12111;DHT22;6119;52.372;8.990;2022-12-07T07:25:44;4.40;99.90
12111;DHT22;6119;52.372;8.990;2022-12-07T07:28:30;4.30;99.90
12111;DHT22;6119;52.372;8.990;2022-12-07T07:31:17;4.30;99.90
12111;DHT22;6119;52.372;8.990;2022-12-07T07:34:06;4.30;99.90
12111;DHT22;6119;52.372;8.990;2022-12-07T07:36:52;4.20;99.90
12111;DHT22;6119;52.372;8.990;2022-12-07T07:39:39;4.20;99.90
12111;DHT22;6119;52.372;8.990;2022-12-07T07:42:25;4.20;99.90
12111;DHT22;6119;52.372;8.990;2022-12-07T07:45:12;4.20;99.90
12111;DHT22;6119;52.372;8.990;2022-12-07T07:47:58;4.30;99.90
12111;DHT22;6119;52.372;8.990;2022-12-07T07:50:46;4.30;99.90
12111;DHT22;6119;52.372;8.990;2022-12-07T07:53:33;4.20;99.90
12111;DHT22;6119;52.372;8.990;2022-12-07T07:56:19;4.00;99.90
12111;DHT22;6119;52.372;8.990;2022-12-07T07:59:05;4.10;99.90
12111;DHT22;6119;52.372;8.990;2022-12-07T08:01:52;4.20;99.90
12111;DHT22;6119;52.372;8.990;2022-12-07T08:04:39;4.20;99.90
12111;DHT22;6119;52.372;8.990;2022-12-07T08:07:28;4.20;99.90
12111;DHT22;6119;52.372;8.990;2022-12-07T08:10:15;4.10;99.90
12111;DHT22;6119;52.372;8.990;2022-12-07T08:13:01;4.30;99.90
12111;DHT22;6119;52.372;8.990;2022-12-07T08:16:03;4.30;99.90
12111;DHT22;6119;52.372;8.990;2022-12-07T08:18:50;4.40;99.90
12111;DHT22;6119;52.372;8.990;2022-12-07T08:21:37;4.40;99.90
12111;DHT22;6119;52.372;8.990;2022-12-07T08:24:25;4.40;99.90
12111;DHT22;6119;52.372;8.990;2022-12-07T08:27:12;4.40;99.90
12111;DHT22;6119;52.372;8.990;2022-12-07T08:29:58;4.30;99.90
12111;DHT22;6119;52.372;8.990;2022-12-07T08:32:46;4.40;99.90
12111;DHT22;6119;52.372;8.990;2022-12-07T08:35:33;4.50;99.90
12111;DHT22;6119;52.372;8.990;2022-12-07T08:38:20;4.50;99.90
12111;DHT22;6119;52.372;8.990;2022-12-07T08:41:14;4.50;99.90
12111;DHT22;6119;52.372;8.990;2022-12-07T08:44:01;4.50;99.90
12111;DHT22;6119;52.372;8.990;2022-12-07T08:46:50;4.50;99.90
12111;DHT22;6119;52.372;8.990;2022-12-07T08:49:40;4.40;99.90
12111;DHT22;6119;52.372;8.990;2022-12-07T08:52:28;4.40;99.90
12111;DHT22;6119;52.372;8.990;2022-12-07T08:55:14;4.40;99.90
12111;DHT22;6119;52.372;8.990;2022-12-07T08:58:03;4.60;99.90
12111;DHT22;6119;52.372;8.990;2022-12-07T09:00:50;4.40;99.90
12111;DHT22;6119;52.372;8.990;2022-12-07T09:03:36;4.50;99.90
12111;DHT22;6119;52.372;8.990;2022-12-07T09:06:23;4.40;99.90
12111;DHT22;6119;52.372;8.990;2022-12-07T09:09:11;4.60;99.90
12111;DHT22;6119;52.372;8.990;2022-12-07T09:12:00;4.60;99.90
12111;DHT22;6119;52.372;8.990;2022-12-07T09:14:48;4.60;99.90
12111;DHT22;6119;52.372;8.990;2022-12-07T09:17:35;4.70;99.90
12111;DHT22;6119;52.372;8.990;2022-12-07T09:20:22;4.60;99.90
12111;DHT22;6119;52.372;8.990;2022-12-07T09:23:12;4.60;99.90
12111;DHT22;6119;52.372;8.990;2022-12-07T09:25:59;4.60;99.90
12111;DHT22;6119;52.372;8.990;2022-12-07T09:28:54;4.70;99.90
12111;DHT22;6119;52.372;8.990;2022-12-07T09:31:42;4.90;99.90
12111;DHT22;6119;52.372;8.990;2022-12-07T09:34:30;4.90;99.90
12111;DHT22;6119;52.372;8.990;2022-12-07T09:37:18;4.90;99.90
12111;DHT22;6119;52.372;8.990;2022-12-07T09:40:06;4.80;99.90
12111;DHT22;6119;52.372;8.990;2022-12-07T09:42:54;4.90;99.90
12111;DHT22;6119;52.372;8.990;2022-12-07T09:45:42;4.80;99.90
12111;DHT22;6119;52.372;8.990;2022-12-07T09:48:36;4.80;99.90
12111;DHT22;6119;52.372;8.990;2022-12-07T09:51:24;4.70;99.90
12111;DHT22;6119;52.372;8.990;2022-12-07T09:54:13;4.80;99.90
12111;DHT22;6119;52.372;8.990;2022-12-07T09:57:00;4.80;99.90
12111;DHT22;6119;52.372;8.990;2022-12-07T09:59:47;4.90;99.90
12111;DHT22;6119;52.372;8.990;2022-12-07T10:02:37;4.90;99.90
12111;DHT22;6119;52.372;8.990;2022-12-07T10:05:28;5.00;99.90
12111;DHT22;6119;52.372;8.990;2022-12-07T10:08:16;5.10;99.90
12111;DHT22;6119;52.372;8.990;2022-12-07T10:11:03;5.00;99.90
12111;DHT22;6119;52.372;8.990;2022-12-07T10:14:10;4.90;99.90
12111;DHT22;6119;52.372;8.990;2022-12-07T10:16:57;5.00;99.90
12111;DHT22;6119;52.372;8.990;2022-12-07T10:19:44;4.90;99.90
12111;DHT22;6119;52.372;8.990;2022-12-07T10:22:32;4.80;99.90
12111;DHT22;6119;52.372;8.990;2022-12-07T10:25:20;4.90;99.90
12111;DHT22;6119;52.372;8.990;2022-12-07T10:28:13;4.90;99.90
12111;DHT22;6119;52.372;8.990;2022-12-07T10:31:02;5.10;99.90
12111;DHT22;6119;52.372;8.990;2022-12-07T10:33:53;5.20;99.90
12111;DHT22;6119;52.372;8.990;2022-12-07T10:36:40;5.20;99.90
12111;DHT22;6119;52.372;8.990;2022-12-07T10:39:28;5.20;99.90
12111;DHT22;6119;52.372;8.990;2022-12-07T10:42:19;5.40;99.90
12111;DHT22;6119;52.372;8.990;2022-12-07T10:45:09;5.30;99.90
12111;DHT22;6119;52.372;8.990;2022-12-07T10:48:01;5.30;99.90
12111;DHT22;6119;52.372;8.990;2022-12-07T10:51:01;5.40;99.90
12111;DHT22;6119;52.372;8.990;2022-12-07T10:53:57;5.60;99.90
12111;DHT22;6119;52.372;8.990;2022-12-07T10:57:26;5.80;99.90
12111;DHT22;6119;52.372;8.990;2022-12-07T11:00:18;5.90;99.90
12111;DHT22;6119;52.372;8.990;2022-12-07T11:03:26;5.70;99.90
12111;DHT22;6119;52.372;8.990;2022-12-07T11:06:25;5.60;99.90
12111;DHT22;6119;52.372;8.990;2022-12-07T11:09:35;7.00;99.90
12111;DHT22;6119;52.372;8.990;2022-12-07T11:16:17;5.50;99.90
12111;DHT22;6119;52.372;8.990;2022-12-07T11:19:20;5.60;99.90
12111;DHT22;6119;52.372;8.990;2022-12-07T11:22:16;5.40;99.90
12111;DHT22;6119;52.372;8.990;2022-12-07T11:25:22;5.50;99.90
12111;DHT22;6119;52.372;8.990;2022-12-07T11:28:28;5.50;99.90
12111;DHT22;6119;52.372;8.990;2022-12-07T11:31:24;5.60;99.90
12111;DHT22;6119;52.372;8.990;2022-12-07T11:34:20;5.60;99.90
12111;DHT22;6119;52.372;8.990;2022-12-07T11:37:15;5.70;99.90
12111;DHT22;6119;52.372;8.990;2022-12-07T11:40:04;5.70;99.90
12111;DHT22;6119;52.372;8.990;2022-12-07T11:42:55;5.80;99.90
12111;DHT22;6119;52.372;8.990;2022-12-07T11:45:47;5.80;99.90
12111;DHT22;6119;52.372;8.990;2022-12-07T11:48:42;5.80;99.90
12111;DHT22;6119;52.372;8.990;2022-12-07T11:51:34;5.80;99.90
12111;DHT22;6119;52.372;8.990;2022-12-07T11:54:26;5.90;99.90
12111;DHT22;6119;52.372;8.990;2022-12-07T11:57:18;5.90;99.90
12111;DHT22;6119;52.372;8.990;2022-12-07T12:00:12;6.00;99.90
12111;DHT22;6119;52.372;8.990;2022-12-07T12:03:04;6.00;99.90
12111;DHT22;6119;52.372;8.990;2022-12-07T12:05:56;6.00;99.90
12111;DHT22;6119;52.372;8.990;2022-12-07T12:08:46;6.00;99.90
12111;DHT22;6119;52.372;8.990;2022-12-07T12:12:19;5.90;99.90
12111;DHT22;6119;52.372;8.990;2022-12-07T12:15:39;6.00;99.90
12111;DHT22;6119;52.372;8.990;2022-12-07T12:18:45;5.30;99.90
12111;DHT22;6119;52.372;8.990;2022-12-07T12:21:38;6.20;99.90
12111;DHT22;6119;52.372;8.990;2022-12-07T12:24:27;6.10;99.90
12111;DHT22;6119;52.372;8.990;2022-12-07T12:27:20;6.10;99.90
12111;DHT22;6119;52.372;8.990;2022-12-07T12:30:27;6.10;99.90
12111;DHT22;6119;52.372;8.990;2022-12-07T12:33:22;6.00;99.90
12111;DHT22;6119;52.372;8.990;2022-12-07T12:36:28;6.10;99.90
12111;DHT22;6119;52.372;8.990;2022-12-07T12:39:29;6.20;99.90
12111;DHT22;6119;52.372;8.990;2022-12-07T12:42:18;6.20;99.90
12111;DHT22;6119;52.372;8.990;2022-12-07T12:45:21;6.20;99.90
12111;DHT22;6119;52.372;8.990;2022-12-07T12:48:29;6.10;99.90
12111;DHT22;6119;52.372;8.990;2022-12-07T12:51:37;6.00;99.90
12111;DHT22;6119;52.372;8.990;2022-12-07T12:54:26;6.00;99.90
12111;DHT22;6119;52.372;8.990;2022-12-07T12:57:17;5.90;99.90
12111;DHT22;6119;52.372;8.990;2022-12-07T13:00:16;6.00;99.90
12111;DHT22;6119;52.372;8.990;2022-12-07T13:03:03;6.10;99.90
12111;DHT22;6119;52.372;8.990;2022-12-07T13:06:19;6.00;99.90
12111;DHT22;6119;52.372;8.990;2022-12-07T13:09:19;6.00;99.90
12111;DHT22;6119;52.372;8.990;2022-12-07T13:12:13;6.00;99.90
12111;DHT22;6119;52.372;8.990;2022-12-07T13:15:00;6.00;99.90
12111;DHT22;6119;52.372;8.990;2022-12-07T13:17:58;6.00;99.90
12111;DHT22;6119;52.372;8.990;2022-12-07T13:20:54;6.00;99.90
12111;DHT22;6119;52.372;8.990;2022-12-07T13:23:55;5.90;99.90
12111;DHT22;6119;52.372;8.990;2022-12-07T13:26:45;5.90;99.90
12111;DHT22;6119;52.372;8.990;2022-12-07T13:29:36;5.90;99.90
12111;DHT22;6119;52.372;8.990;2022-12-07T13:32:25;5.80;99.90
12111;DHT22;6119;52.372;8.990;2022-12-07T13:35:29;5.90;99.90
12111;DHT22;6119;52.372;8.990;2022-12-07T13:38:23;5.90;99.90
12111;DHT22;6119;52.372;8.990;2022-12-07T13:41:13;5.80;99.90
12111;DHT22;6119;52.372;8.990;2022-12-07T13:44:07;5.90;99.90
12111;DHT22;6119;52.372;8.990;2022-12-07T13:47:01;5.90;99.90
12111;DHT22;6119;52.372;8.990;2022-12-07T13:49:53;5.80;99.90
12111;DHT22;6119;52.372;8.990;2022-12-07T13:52:43;5.80;99.90
12111;DHT22;6119;52.372;8.990;2022-12-07T13:55:31;5.70;99.90
12111;DHT22;6119;52.372;8.990;2022-12-07T13:58:17;5.80;99.90
12111;DHT22;6119;52.372;8.990;2022-12-07T14:01:05;5.80;99.90
12111;DHT22;6119;52.372;8.990;2022-12-07T14:03:52;5.70;99.90
12111;DHT22;6119;52.372;8.990;2022-12-07T14:06:47;5.80;99.90
12111;DHT22;6119;52.372;8.990;2022-12-07T14:09:34;5.70;99.90
12111;DHT22;6119;52.372;8.990;2022-12-07T14:12:23;5.70;99.90
12111;DHT22;6119;52.372;8.990;2022-12-07T14:15:19;5.70;99.90
12111;DHT22;6119;52.372;8.990;2022-12-07T14:18:26;5.70;99.90
12111;DHT22;6119;52.372;8.990;2022-12-07T14:21:16;5.60;99.90
12111;DHT22;6119;52.372;8.990;2022-12-07T14:24:16;5.60;99.90
12111;DHT22;6119;52.372;8.990;2022-12-07T14:27:03;5.70;99.90
12111;DHT22;6119;52.372;8.990;2022-12-07T14:30:04;5.70;99.90
12111;DHT22;6119;52.372;8.990;2022-12-07T14:32:54;5.50;99.90
12111;DHT22;6119;52.372;8.990;2022-12-07T14:35:42;5.70;99.90
12111;DHT22;6119;52.372;8.990;2022-12-07T14:38:29;5.60;99.90
12111;DHT22;6119;52.372;8.990;2022-12-07T14:41:18;5.60;99.90
12111;DHT22;6119;52.372;8.990;2022-12-07T14:44:25;5.70;99.90
12111;DHT22;6119;52.372;8.990;2022-12-07T14:47:20;5.60;99.90
12111;DHT22;6119;52.372;8.990;2022-12-07T14:50:26;5.50;99.90
12111;DHT22;6119;52.372;8.990;2022-12-07T14:53:16;5.60;99.90
12111;DHT22;6119;52.372;8.990;2022-12-07T14:56:06;5.50;99.90
12111;DHT22;6119;52.372;8.990;2022-12-07T14:58:53;5.50;99.90
12111;DHT22;6119;52.372;8.990;2022-12-07T15:01:40;5.50;99.90
12111;DHT22;6119;52.372;8.990;2022-12-07T15:04:26;5.50;99.90
12111;DHT22;6119;52.372;8.990;2022-12-07T15:07:19;5.50;99.90
12111;DHT22;6119;52.372;8.990;2022-12-07T15:10:14;5.30;99.90
12111;DHT22;6119;52.372;8.990;2022-12-07T15:13:08;5.20;99.90
12111;DHT22;6119;52.372;8.990;2022-12-07T15:16:14;5.30;99.90
12111;DHT22;6119;52.372;8.990;2022-12-07T15:19:03;5.30;99.90
12111;DHT22;6119;52.372;8.990;2022-12-07T15:22:10;5.30;99.90
12111;DHT22;6119;52.372;8.990;2022-12-07T15:24:57;5.20;99.90
12111;DHT22;6119;52.372;8.990;2022-12-07T15:27:45;5.20;99.90
12111;DHT22;6119;52.372;8.990;2022-12-07T15:30:32;5.30;99.90
12111;DHT22;6119;52.372;8.990;2022-12-07T15:33:19;5.20;99.90
12111;DHT22;6119;52.372;8.990;2022-12-07T15:36:06;5.20;99.90
12111;DHT22;6119;52.372;8.990;2022-12-07T15:38:53;5.20;99.90
12111;DHT22;6119;52.372;8.990;2022-12-07T15:41:58;5.30;99.90
12111;DHT22;6119;52.372;8.990;2022-12-07T15:44:47;5.30;99.90
12111;DHT22;6119;52.372;8.990;2022-12-07T15:47:52;5.30;99.90
12111;DHT22;6119;52.372;8.990;2022-12-07T15:51:04;5.30;99.90
12111;DHT22;6119;52.372;8.990;2022-12-07T15:53:51;5.20;99.90
12111;DHT22;6119;52.372;8.990;2022-12-07T15:56:37;5.20;99.90
12111;DHT22;6119;52.372;8.990;2022-12-07T15:59:25;5.30;99.90
12111;DHT22;6119;52.372;8.990;2022-12-07T16:02:13;5.00;99.90
12111;DHT22;6119;52.372;8.990;2022-12-07T16:05:00;5.10;99.90
12111;DHT22;6119;52.372;8.990;2022-12-07T16:07:47;5.00;99.90
12111;DHT22;6119;52.372;8.990;2022-12-07T16:10:34;5.10;99.90
12111;DHT22;6119;52.372;8.990;2022-12-07T16:13:21;5.00;99.90
12111;DHT22;6119;52.372;8.990;2022-12-07T16:16:10;5.10;99.90
12111;DHT22;6119;52.372;8.990;2022-12-07T16:18:58;5.10;99.90
12111;DHT22;6119;52.372;8.990;2022-12-07T16:21:45;5.20;99.90
12111;DHT22;6119;52.372;8.990;2022-12-07T16:24:32;5.10;99.90
12111;DHT22;6119;52.372;8.990;2022-12-07T16:27:18;5.20;99.90
12111;DHT22;6119;52.372;8.990;2022-12-07T16:30:06;5.10;99.90
12111;DHT22;6119;52.372;8.990;2022-12-07T16:32:54;5.00;99.90
12111;DHT22;6119;52.372;8.990;2022-12-07T16:35:48;5.10;99.90
12111;DHT22;6119;52.372;8.990;2022-12-07T16:38:36;5.00;99.90
12111;DHT22;6119;52.372;8.990;2022-12-07T16:41:22;4.90;99.90
12111;DHT22;6119;52.372;8.990;2022-12-07T16:44:11;4.90;99.90
12111;DHT22;6119;52.372;8.990;2022-12-07T16:46:58;4.90;99.90
12111;DHT22;6119;52.372;8.990;2022-12-07T16:49:46;5.00;99.90
12111;DHT22;6119;52.372;8.990;2022-12-07T16:52:34;5.00;99.90
12111;DHT22;6119;52.372;8.990;2022-12-07T16:55:21;4.80;99.90
12111;DHT22;6119;52.372;8.990;2022-12-07T16:58:08;4.80;99.90
12111;DHT22;6119;52.372;8.990;2022-12-07T17:00:55;4.70;99.90
12111;DHT22;6119;52.372;8.990;2022-12-07T17:03:42;4.70;99.90
12111;DHT22;6119;52.372;8.990;2022-12-07T17:06:29;4.90;99.90
12111;DHT22;6119;52.372;8.990;2022-12-07T17:09:20;4.70;99.90
12111;DHT22;6119;52.372;8.990;2022-12-07T17:12:07;4.80;99.90
12111;DHT22;6119;52.372;8.990;2022-12-07T17:14:54;4.80;99.90
12111;DHT22;6119;52.372;8.990;2022-12-07T17:17:58;4.70;99.90
12111;DHT22;6119;52.372;8.990;2022-12-07T17:20:45;4.70;99.90
12111;DHT22;6119;52.372;8.990;2022-12-07T17:23:32;4.70;99.90
12111;DHT22;6119;52.372;8.990;2022-12-07T17:26:22;4.60;99.90
12111;DHT22;6119;52.372;8.990;2022-12-07T17:29:14;4.60;99.90
12111;DHT22;6119;52.372;8.990;2022-12-07T17:32:01;4.60;99.90
12111;DHT22;6119;52.372;8.990;2022-12-07T17:34:48;4.50;99.90
12111;DHT22;6119;52.372;8.990;2022-12-07T17:37:35;4.60;99.90
12111;DHT22;6119;52.372;8.990;2022-12-07T17:40:21;4.60;99.90
12111;DHT22;6119;52.372;8.990;2022-12-07T17:43:09;4.50;99.90
12111;DHT22;6119;52.372;8.990;2022-12-07T17:45:56;4.60;99.90
12111;DHT22;6119;52.372;8.990;2022-12-07T17:48:43;4.30;99.90
12111;DHT22;6119;52.372;8.990;2022-12-07T17:51:30;4.50;99.90
12111;DHT22;6119;52.372;8.990;2022-12-07T17:54:34;4.50;99.90
12111;DHT22;6119;52.372;8.990;2022-12-07T17:57:21;4.60;99.90
12111;DHT22;6119;52.372;8.990;2022-12-07T18:00:10;4.60;99.90
12111;DHT22;6119;52.372;8.990;2022-12-07T18:02:57;4.60;99.90
12111;DHT22;6119;52.372;8.990;2022-12-07T18:05:44;4.60;99.90
12111;DHT22;6119;52.372;8.990;2022-12-07T18:08:34;4.60;99.90
12111;DHT22;6119;52.372;8.990;2022-12-07T18:11:23;4.60;99.90
12111;DHT22;6119;52.372;8.990;2022-12-07T18:14:09;4.60;99.90
12111;DHT22;6119;52.372;8.990;2022-12-07T18:16:57;4.80;99.90
12111;DHT22;6119;52.372;8.990;2022-12-07T18:19:44;4.70;99.90
12111;DHT22;6119;52.372;8.990;2022-12-07T18:22:31;4.60;99.90
12111;DHT22;6119;52.372;8.990;2022-12-07T18:25:17;4.70;99.90
12111;DHT22;6119;52.372;8.990;2022-12-07T18:28:04;4.50;99.90
12111;DHT22;6119;52.372;8.990;2022-12-07T18:30:51;4.50;99.90
12111;DHT22;6119;52.372;8.990;2022-12-07T18:34:02;4.60;99.90
12111;DHT22;6119;52.372;8.990;2022-12-07T18:36:49;4.60;99.90